Lincoln, Alabama
Current Conditions -  °F | °C
As of 1:15 PM on Friday 24 Oct 2014 (Local Time) from KASN Reporting Station
Clear Clear  
Wind Chill: 22°   Ceiling: Unl
Heat Index: 22°   Visibility: 10mi
Dew Point:   Wind: 6mph
Humidity: 38%   Direction: 300°WNW
Pressure: 30.05"   Gusts: NA
Location:  33.61°N, 86.12°W
Report Text: KASN 241815Z AUTO 30005KT 10SM CLR 22/07 A3005 RMK AO2 T02210073
Loading
Personal Weather Stations






























Interactive Weather Map
Tropical Storm Tracking
New forecast layout! Learn more

10-Day Weather Forecast

Advertisements
Track Severe Weather on mobile